Time;durP1;ratioP1;P1;durP2;ratioP2;P2;SDS_P1;SDS_P2;PMS_P1;PMS_P2;Temp;Humidity;BMP_temperature;BMP_pressure;BME280_temperature;BME280_humidity;BME280_pressure;Samples;Min_cycle;Max_cycle;Signal;HPM_P1;HPM_P2
2023/10/04 00:00:14;;;;;;;0.10;0.10;;;;;;;12.35;74.44;98337.97;5135649;27;20058;-73
2023/10/04 00:02:46;;;;;;;0.15;0.15;;;;;;;12.24;75.07;98344.63;5138589;27;20069;-73
2023/10/04 00:05:16;;;;;;;0.30;0.30;;;;;;;12.44;74.07;98352.91;5128041;27;20047;-71
2023/10/04 00:07:45;;;;;;;0.10;0.10;;;;;;;12.35;74.55;98357.53;5134545;27;20035;-72
2023/10/04 00:10:12;;;;;;;0.10;0.10;;;;;;;12.03;75.71;98356.09;5133801;27;20057;-71
2023/10/04 00:12:43;;;;;;;0.10;0.10;;;;;;;12.01;75.94;98355.44;5133475;27;20042;-73
2023/10/04 00:15:13;;;;;;;0.13;0.13;;;;;;;12.00;75.50;98363.66;5131065;27;20051;-71
2023/10/04 00:17:42;;;;;;;0.10;0.10;;;;;;;11.87;75.86;98371.47;5132741;27;20043;-73
2023/10/04 00:20:13;;;;;;;0.10;0.10;;;;;;;11.77;75.53;98366.41;5124939;27;20063;-71
2023/10/04 00:22:42;;;;;;;0.20;0.20;;;;;;;11.70;75.23;98370.78;5125621;27;20126;-74
2023/10/04 00:25:12;;;;;;;0.30;0.25;;;;;;;11.78;75.24;98365.38;5133715;27;20774;-72
2023/10/04 00:27:42;;;;;;;0.25;0.25;;;;;;;11.84;74.54;98363.81;5130255;27;20070;-73
2023/10/04 00:30:12;;;;;;;0.10;0.10;;;;;;;11.62;74.59;98362.84;5132867;27;20047;-72
2023/10/04 00:32:40;;;;;;;0.15;0.15;;;;;;;11.50;75.44;98358.97;5132967;27;20735;-72
2023/10/04 00:35:11;;;;;;;0.10;0.10;;;;;;;11.42;75.67;98367.88;5119462;27;20039;-72
2023/10/04 00:37:42;;;;;;;0.03;0.03;;;;;;;11.35;75.95;98370.44;5110796;27;20505;-72
2023/10/04 00:40:16;;;;;;;0.15;0.15;;;;;;;11.29;76.33;98375.69;5116853;27;20051;-73
2023/10/04 00:42:43;;;;;;;0.10;0.10;;;;;;;11.29;76.32;98359.66;5131411;27;20039;-74
2023/10/04 00:45:13;;;;;;;0.10;0.10;;;;;;;11.31;75.91;98374.50;5132974;27;20050;-74
2023/10/04 00:47:42;;;;;;;0.13;0.13;;;;;;;11.29;76.16;98373.00;5128926;27;20049;-73
2023/10/04 00:50:16;;;;;;;0.20;0.20;;;;;;;11.18;76.46;98374.25;5121241;27;20042;-73
2023/10/04 00:52:46;;;;;;;0.20;0.20;;;;;;;11.07;76.99;98381.88;5131594;27;20053;-72
2023/10/04 00:55:17;;;;;;;0.10;0.10;;;;;;;10.98;77.42;98381.09;5109750;28;20088;-73
2023/10/04 00:57:48;;;;;;;0.20;0.20;;;;;;;10.89;77.66;98384.84;5112812;27;20084;-74
2023/10/04 01:00:18;;;;;;;0.20;0.20;;;;;;;10.83;77.99;98404.22;5129848;27;20074;-74
2023/10/04 01:02:46;;;;;;;0.17;0.17;;;;;;;10.77;78.36;98419.13;5132460;27;20539;-73
2023/10/04 01:05:15;;;;;;;0.10;0.10;;;;;;;10.61;78.67;98425.34;5133614;27;20126;-74
2023/10/04 01:07:44;;;;;;;0.30;0.30;;;;;;;10.53;79.19;98438.75;5113698;27;20043;-71
2023/10/04 01:10:15;;;;;;;0.20;0.20;;;;;;;10.59;78.81;98435.38;5129932;27;20039;-73
2023/10/04 01:12:46;;;;;;;0.20;0.20;;;;;;;10.61;78.73;98436.03;5120844;27;20058;-73
2023/10/04 01:15:30;;;;;;;0.15;0.15;;;;;;;10.65;78.81;98429.34;5133909;27;20078;-73
2023/10/04 01:18:00;;;;;;;0.10;0.10;;;;;;;10.72;78.29;98429.47;5132349;27;20474;-70
2023/10/04 01:20:30;;;;;;;0.30;0.30;;;;;;;10.78;78.10;98425.28;5126838;27;20112;-73
2023/10/04 01:23:01;;;;;;;0.10;0.10;;;;;;;10.72;78.29;98431.31;5105787;28;20073;-72
2023/10/04 01:25:31;;;;;;;0.10;0.10;;;;;;;10.65;78.42;98434.69;5127542;27;20041;-70
2023/10/04 01:27:59;;;;;;;0.30;0.30;;;;;;;10.54;78.66;98429.72;5129528;27;20084;-71
2023/10/04 01:30:27;;;;;;;0.20;0.20;;;;;;;10.49;78.70;98426.75;5133385;27;20071;-71
2023/10/04 01:32:55;;;;;;;0.20;0.20;;;;;;;10.48;79.09;98432.28;5115873;28;20062;-71
2023/10/04 01:35:24;;;;;;;0.20;0.20;;;;;;;10.61;77.98;98424.53;5132883;28;20047;-72
2023/10/04 01:37:52;;;;;;;0.10;0.10;;;;;;;10.59;78.37;98426.53;5125438;28;20039;-73
2023/10/04 01:40:25;;;;;;;0.20;0.20;;;;;;;10.65;77.84;98433.84;5128894;28;20039;-73
2023/10/04 01:42:55;;;;;;;0.20;0.20;;;;;;;10.50;78.29;98436.41;5110722;28;20065;-73
2023/10/04 01:45:23;;;;;;;0.20;0.20;;;;;;;10.57;77.63;98433.91;5128640;28;20096;-71
2023/10/04 01:47:51;;;;;;;0.22;0.22;;;;;;;10.49;78.17;98441.91;5129916;28;20031;-71
2023/10/04 01:50:19;;;;;;;0.20;0.20;;;;;;;10.56;77.99;98438.41;5127734;27;20051;-73
2023/10/04 01:52:48;;;;;;;0.20;0.20;;;;;;;10.49;78.45;98437.41;5144353;27;20045;-71
2023/10/04 01:55:17;;;;;;;0.20;0.20;;;;;;;10.53;78.31;98438.75;5140607;27;20114;-70
2023/10/04 01:57:46;;;;;;;0.20;0.20;;;;;;;10.37;78.84;98438.00;5140939;27;20034;-71
2023/10/04 02:00:20;;;;;;;0.32;0.32;;;;;;;10.31;79.30;98444.84;5128112;27;20142;-71
2023/10/04 02:02:48;;;;;;;0.20;0.20;;;;;;;10.37;78.86;98438.81;5141932;27;20039;-70
2023/10/04 02:05:24;;;;;;;0.10;0.10;;;;;;;10.29;79.46;98442.34;5141190;27;20685;-71
2023/10/04 02:07:53;;;;;;;0.10;0.10;;;;;;;10.30;79.74;98441.31;5139530;27;20050;-70
2023/10/04 02:10:21;;;;;;;0.10;0.10;;;;;;;10.33;79.69;98447.34;5132257;27;20047;-71
2023/10/04 02:12:53;;;;;;;0.20;0.20;;;;;;;10.44;79.74;98444.28;5135720;27;20123;-73
2023/10/04 02:15:21;;;;;;;0.22;0.22;;;;;;;10.44;79.70;98438.97;5139429;27;20047;-73
2023/10/04 02:17:49;;;;;;;0.10;0.10;;;;;;;10.49;79.58;98436.59;5134842;27;20165;-74
2023/10/04 02:20:22;;;;;;;0.20;0.20;;;;;;;10.48;79.66;98446.47;5116362;27;20050;-74
2023/10/04 02:22:50;;;;;;;;;;;;;;;10.57;79.19;98448.09;5132190;27;20036;-70
2023/10/04 02:25:19;;;;;;;0.10;0.10;;;;;;;10.58;79.25;98444.41;5128861;27;19983;-74
2023/10/04 02:27:49;;;;;;;0.20;0.20;;;;;;;10.54;79.33;98439.59;5134385;27;20047;-73
2023/10/04 02:30:21;;;;;;;0.20;0.20;;;;;;;10.55;79.39;98450.09;5127764;27;20039;-72
2023/10/04 02:32:50;;;;;;;0.10;0.10;;;;;;;10.58;79.24;98440.91;5135414;27;20399;-71
2023/10/04 02:35:26;;;;;;;0.17;0.17;;;;;;;10.59;79.01;98445.22;5122406;27;20075;-72
2023/10/04 02:37:59;;;;;;;0.20;0.20;;;;;;;10.57;79.54;98450.75;5117074;27;20039;-72
2023/10/04 02:40:32;;;;;;;0.60;0.60;;;;;;;10.57;79.43;98448.09;5135029;27;20577;-72
2023/10/04 02:43:02;;;;;;;0.20;0.20;;;;;;;10.62;79.21;98455.56;5118539;27;20043;-71
2023/10/04 02:45:31;;;;;;;0.10;0.10;;;;;;;10.58;79.55;98456.94;5135038;27;20114;-73
2023/10/04 02:47:59;;;;;;;0.20;0.20;;;;;;;10.58;79.52;98452.41;5117360;27;20028;-70
2023/10/04 02:50:27;;;;;;;0.20;0.20;;;;;;;10.60;79.66;98457.56;5116611;27;20039;-69
2023/10/04 02:52:56;;;;;;;0.20;0.20;;;;;;;10.59;79.72;98455.91;5121620;27;20045;-69
2023/10/04 02:55:26;;;;;;;0.10;0.10;;;;;;;10.58;80.35;98451.59;5126217;27;20043;-70
2023/10/04 02:57:55;;;;;;;0.20;0.20;;;;;;;10.58;80.28;98457.75;5133927;27;20032;-71
2023/10/04 03:00:24;;;;;;;0.10;0.10;;;;;;;10.53;80.64;98457.44;5123321;27;20073;-71
2023/10/04 03:02:55;;;;;;;0.15;0.15;;;;;;;10.55;80.70;98458.09;5127540;27;20039;-72
2023/10/04 03:05:29;;;;;;;;;;;;;;;10.52;80.79;98460.25;5141961;27;20047;-72
2023/10/04 03:08:06;;;;;;;0.10;0.10;;;;;;;10.54;80.96;98466.28;5127773;27;20006;-73
2023/10/04 03:10:36;;;;;;;0.15;0.15;;;;;;;10.54;80.97;98453.75;5125020;27;20042;-72
2023/10/04 03:13:11;;;;;;;0.20;0.20;;;;;;;10.57;80.76;98461.44;5128206;27;20551;-71
2023/10/04 03:15:43;;;;;;;0.20;0.20;;;;;;;10.53;80.76;98457.44;5109811;27;20039;-73
2023/10/04 03:18:18;;;;;;;0.20;0.20;;;;;;;10.52;80.82;98460.25;5116624;27;20074;-72
2023/10/04 03:20:56;;;;;;;0.10;0.10;;;;;;;10.49;81.37;98461.44;5114490;27;20047;-73
2023/10/04 03:23:25;;;;;;;0.30;0.30;;;;;;;10.44;81.33;98454.97;5121717;27;20054;-74
2023/10/04 03:25:56;;;;;;;0.10;0.10;;;;;;;10.42;81.43;98451.63;5120984;27;20118;-73
2023/10/04 03:28:26;;;;;;;0.15;0.15;;;;;;;10.41;81.42;98465.97;5116914;27;20087;-74
2023/10/04 03:30:56;;;;;;;0.10;0.10;;;;;;;10.41;81.78;98460.63;5130331;27;20042;-72
2023/10/04 03:33:26;;;;;;;0.15;0.15;;;;;;;10.42;81.65;98462.31;5118349;27;20047;-73
2023/10/04 03:35:55;;;;;;;0.20;0.20;;;;;;;10.49;81.70;98474.78;5123984;27;20565;-72
2023/10/04 03:38:26;;;;;;;0.30;0.30;;;;;;;10.51;81.63;98477.28;5120643;27;20047;-72
2023/10/04 03:40:55;;;;;;;0.35;0.35;;;;;;;10.60;81.43;98478.91;5137017;27;20039;-73
2023/10/04 03:43:24;;;;;;;0.10;0.10;;;;;;;10.62;81.33;98488.44;5118550;27;20047;-71
2023/10/04 03:45:52;;;;;;;0.10;0.10;;;;;;;10.57;81.05;98480.13;5113574;27;20035;-71
2023/10/04 03:48:23;;;;;;;0.20;0.20;;;;;;;10.56;81.38;98491.78;5121504;27;20039;-72
2023/10/04 03:51:02;;;;;;;0.10;0.10;;;;;;;10.60;80.94;98485.09;5118939;27;20494;-70
2023/10/04 03:53:30;;;;;;;0.20;0.20;;;;;;;10.61;81.07;98480.59;5121309;27;20139;-70
2023/10/04 03:56:04;;;;;;;0.10;0.10;;;;;;;10.60;81.02;98478.91;5118075;27;20051;-71
2023/10/04 03:58:32;;;;;;;0.10;0.10;;;;;;;10.54;81.00;98476.94;5118321;27;20035;-71
2023/10/04 04:01:01;;;;;;;0.10;0.10;;;;;;;10.47;81.59;98492.00;5133566;27;20045;-70
2023/10/04 04:03:30;;;;;;;0.20;0.20;;;;;;;10.44;81.93;98484.31;5136116;27;20043;-69
2023/10/04 04:06:00;;;;;;;0.13;0.13;;;;;;;10.41;82.10;98476.66;5129664;27;20058;-71
2023/10/04 04:08:27;;;;;;;0.10;0.10;;;;;;;10.48;82.06;98481.16;5134276;27;20074;-74
2023/10/04 04:10:55;;;;;;;0.20;0.20;;;;;;;10.42;82.24;98487.16;5124789;27;20035;-71
2023/10/04 04:13:23;;;;;;;0.52;0.52;;;;;;;10.41;82.17;98482.00;5135343;27;20100;-71
2023/10/04 04:15:51;;;;;;;0.10;0.10;;;;;;;10.43;82.13;98480.00;5135071;27;20410;-71
2023/10/04 04:18:21;;;;;;;0.20;0.20;;;;;;;10.40;82.27;98480.31;5115277;27;20100;-72
2023/10/04 04:20:53;;;;;;;;;;;;;;;10.34;82.64;98486.34;5115881;27;20140;-71
2023/10/04 04:23:25;;;;;;;0.55;0.55;;;;;;;10.33;82.58;98490.03;5136675;27;19931;-73
2023/10/04 04:25:53;;;;;;;0.20;0.20;;;;;;;10.34;82.63;98487.19;5123506;27;20043;-71
2023/10/04 04:28:21;;;;;;;0.15;0.15;;;;;;;10.32;82.82;98478.53;5113521;27;20051;-70
2023/10/04 04:30:51;;;;;;;0.25;0.25;;;;;;;10.40;82.48;98475.81;5122282;27;20046;-70
2023/10/04 04:33:19;;;;;;;0.20;0.20;;;;;;;10.27;82.77;98471.03;5130548;27;20414;-73
2023/10/04 04:35:51;;;;;;;0.20;0.20;;;;;;;10.30;83.02;98469.84;5117739;27;20126;-72
2023/10/04 04:38:22;;;;;;;0.22;0.22;;;;;;;10.35;82.95;98466.69;5125813;27;20130;-71
2023/10/04 04:40:55;;;;;;;0.20;0.20;;;;;;;10.37;83.11;98460.16;5127139;27;20141;-71
2023/10/04 04:43:36;;;;;;;0.10;0.10;;;;;;;10.36;82.92;98469.19;5113709;27;20039;-71
2023/10/04 04:46:08;;;;;;;0.20;0.20;;;;;;;10.35;82.71;98462.19;5117499;27;20043;-71
2023/10/04 04:48:37;;;;;;;0.28;0.28;;;;;;;10.32;82.96;98469.69;5118075;27;20041;-71
2023/10/04 04:51:11;;;;;;;0.20;0.20;;;;;;;10.41;82.92;98468.66;5143156;27;20047;-73
2023/10/04 04:53:45;;;;;;;0.20;0.20;;;;;;;10.43;82.68;98456.81;5116660;27;20476;-72
2023/10/04 04:56:18;;;;;;;;;;;;;;;10.42;83.10;98468.47;5133166;27;20379;-71
2023/10/04 04:58:49;;;;;;;0.25;0.25;;;;;;;10.49;82.83;98466.78;5134809;27;19950;-72
2023/10/04 05:01:17;;;;;;;0.10;0.10;;;;;;;10.45;83.03;98478.81;5121498;27;20503;-71
2023/10/04 05:03:50;;;;;;;0.20;0.20;;;;;;;10.51;82.82;98475.44;5117813;27;20043;-74
2023/10/04 05:06:22;;;;;;;0.13;0.13;;;;;;;10.48;82.97;98478.47;5121424;27;20048;-74
2023/10/04 05:08:51;;;;;;;0.20;0.20;;;;;;;10.47;83.13;98474.16;5125482;27;20359;-72
2023/10/04 05:11:20;;;;;;;0.20;0.20;;;;;;;10.47;83.21;98474.16;5132272;27;20058;-71
2023/10/04 05:13:48;;;;;;;0.20;0.20;;;;;;;10.48;83.28;98473.16;5132980;27;20043;-72
2023/10/04 05:16:16;;;;;;;0.20;0.20;;;;;;;10.50;83.56;98471.13;5131650;27;20051;-72
2023/10/04 05:18:44;;;;;;;0.20;0.20;;;;;;;10.56;83.37;98469.59;5132246;27;20061;-73
2023/10/04 05:21:12;;;;;;;0.20;0.20;;;;;;;10.62;82.96;98464.41;5132594;27;20088;-72
2023/10/04 05:23:40;;;;;;;0.10;0.10;;;;;;;10.73;82.78;98465.03;5132589;27;20046;-72
2023/10/04 05:26:08;;;;;;;0.20;0.20;;;;;;;10.69;82.58;98464.56;5132276;27;20084;-72
2023/10/04 05:28:37;;;;;;;0.30;0.30;;;;;;;10.68;82.55;98462.88;5130176;27;20498;-73
2023/10/04 05:31:05;;;;;;;0.17;0.17;;;;;;;10.66;83.24;98465.72;5132320;28;20071;-72
2023/10/04 05:33:35;;;;;;;0.20;0.20;;;;;;;10.69;83.05;98469.91;5132239;28;20103;-72
2023/10/04 05:36:04;;;;;;;0.10;0.10;;;;;;;10.73;82.87;98465.03;5132036;28;20035;-72
2023/10/04 05:38:32;;;;;;;0.10;0.10;;;;;;;10.71;82.99;98469.69;5131903;28;20043;-73
2023/10/04 05:41:01;;;;;;;0.22;0.22;;;;;;;10.70;82.99;98482.22;5132387;28;20047;-71
2023/10/04 05:43:29;;;;;;;0.20;0.20;;;;;;;10.79;82.97;98478.53;5133580;28;20100;-72
2023/10/04 05:45:59;;;;;;;0.15;0.15;;;;;;;10.84;82.72;98483.31;5132223;28;20050;-72
2023/10/04 05:48:27;;;;;;;0.30;0.30;;;;;;;10.85;82.74;98479.66;5129008;28;20054;-71
2023/10/04 05:50:55;;;;;;;0.20;0.20;;;;;;;10.86;82.98;98492.00;5127605;28;20035;-71
2023/10/04 05:53:22;;;;;;;0.20;0.20;;;;;;;10.87;82.80;98489.16;5121257;27;20074;-71
2023/10/04 05:55:50;;;;;;;0.20;0.20;;;;;;;10.89;82.87;98491.66;5126617;28;20049;-74
2023/10/04 05:58:18;;;;;;;0.30;0.30;;;;;;;10.97;82.62;98491.63;5130131;28;20433;-72
2023/10/04 06:00:51;;;;;;;0.20;0.20;;;;;;;11.00;82.82;98491.28;5132736;28;20063;-74
2023/10/04 06:03:21;;;;;;;0.20;0.20;;;;;;;11.03;82.51;98486.41;5133540;28;20490;-71
2023/10/04 06:05:51;;;;;;;0.10;0.10;;;;;;;11.05;82.45;98486.22;5133682;28;20070;-73
2023/10/04 06:08:21;;;;;;;0.20;0.20;;;;;;;11.11;82.12;98482.03;5133630;28;20047;-71
2023/10/04 06:10:51;;;;;;;0.20;0.20;;;;;;;11.10;82.37;98486.53;5128026;28;20039;-73
2023/10/04 06:13:22;;;;;;;0.20;0.20;;;;;;;11.15;82.29;98483.31;5131569;28;20051;-72
2023/10/04 06:15:53;;;;;;;0.20;0.20;;;;;;;11.21;82.15;98483.44;5126629;28;20398;-73
2023/10/04 06:18:28;;;;;;;0.10;0.10;;;;;;;11.27;81.64;98481.91;5131890;28;20043;-76
2023/10/04 06:20:56;;;;;;;0.20;0.20;;;;;;;11.33;81.60;98483.88;5131851;28;20035;-73
2023/10/04 06:23:25;;;;;;;0.20;0.20;;;;;;;11.39;81.22;98489.34;5131473;28;20057;-73
2023/10/04 06:25:53;;;;;;;0.25;0.25;;;;;;;11.45;81.36;98490.47;5131560;28;20045;-72
2023/10/04 06:28:21;;;;;;;0.15;0.15;;;;;;;11.49;80.65;98498.97;5116022;28;20058;-75
2023/10/04 06:30:49;;;;;;;0.52;0.52;;;;;;;11.55;80.78;98500.94;5123560;28;20596;-73
2023/10/04 06:33:17;;;;;;;0.32;0.32;;;;;;;11.57;80.14;98498.91;5132041;27;20050;-72
2023/10/04 06:35:47;;;;;;;0.10;0.10;;;;;;;11.59;80.00;98497.75;5132127;27;20126;-72
2023/10/04 06:38:16;;;;;;;0.10;0.10;;;;;;;11.62;80.19;98504.56;5135698;27;20387;-74
2023/10/04 06:40:44;;;;;;;0.13;0.13;;;;;;;11.65;79.86;98502.34;5135358;27;20552;-72
2023/10/04 06:43:14;;;;;;;0.20;0.20;;;;;;;11.73;79.62;98504.97;5135312;27;20049;-73
2023/10/04 06:45:42;;;;;;;0.20;0.20;;;;;;;11.73;79.59;98514.84;5134910;27;20456;-72
2023/10/04 06:48:10;;;;;;;0.20;0.20;;;;;;;11.81;79.32;98513.97;5135010;27;20047;-72
2023/10/04 06:50:39;;;;;;;0.30;0.30;;;;;;;11.84;79.13;98521.63;5134760;27;20039;-72
2023/10/04 06:53:09;;;;;;;0.20;0.20;;;;;;;11.84;79.00;98525.13;5134832;27;20039;-73
2023/10/04 06:55:38;;;;;;;0.25;0.25;;;;;;;11.86;79.17;98530.31;5135126;27;20521;-73
2023/10/04 06:58:10;;;;;;;0.20;0.20;;;;;;;11.91;78.83;98531.44;5135173;27;20050;-72
2023/10/04 07:00:40;;;;;;;0.20;0.20;;;;;;;11.90;78.52;98543.16;5134840;27;20039;-72
2023/10/04 07:03:09;;;;;;;0.15;0.15;;;;;;;11.94;78.77;98547.13;5133526;27;20070;-72
2023/10/04 07:05:39;;;;;;;0.10;0.10;;;;;;;11.94;78.54;98547.13;5128557;27;20051;-75
2023/10/04 07:08:12;;;;;;;0.20;0.20;;;;;;;11.97;78.95;98548.63;5134995;27;20046;-73
2023/10/04 07:10:41;;;;;;;0.20;0.20;;;;;;;11.97;78.74;98554.81;5134647;27;20111;-73
2023/10/04 07:13:09;;;;;;;0.10;0.10;;;;;;;11.98;78.59;98551.13;5128947;27;20039;-73
2023/10/04 07:15:39;;;;;;;0.22;0.22;;;;;;;11.98;78.66;98561.81;5134936;27;20047;-73
2023/10/04 07:18:09;;;;;;;0.20;0.20;;;;;;;12.04;78.43;98558.41;5129045;27;20045;-72
2023/10/04 07:20:39;;;;;;;0.20;0.20;;;;;;;12.09;78.15;98556.03;5134489;27;20111;-75
2023/10/04 07:23:08;;;;;;;0.25;0.25;;;;;;;12.07;77.93;98551.88;5134638;27;20073;-73
2023/10/04 07:25:39;;;;;;;0.20;0.20;;;;;;;12.11;77.70;98559.38;5134279;27;20043;-73
2023/10/04 07:28:09;;;;;;;0.17;0.17;;;;;;;12.14;77.58;98558.19;5135449;27;20095;-73
2023/10/04 07:30:38;;;;;;;0.22;0.22;;;;;;;12.21;77.91;98569.81;5135364;27;20039;-72
2023/10/04 07:33:07;;;;;;;0.20;0.20;;;;;;;12.29;77.87;98571.59;5135272;27;20059;-73
2023/10/04 07:35:36;;;;;;;0.20;0.20;;;;;;;12.35;77.37;98578.91;5134461;27;20050;-72
2023/10/04 07:38:04;;;;;;;0.20;0.20;;;;;;;12.41;76.87;98581.69;5134230;27;20389;-73
2023/10/04 07:40:32;;;;;;;0.20;0.20;;;;;;;12.45;76.89;98584.84;5129515;27;20043;-75
2023/10/04 07:43:02;;;;;;;0.30;0.30;;;;;;;12.40;76.73;98581.88;5123018;27;20127;-74
2023/10/04 07:45:30;;;;;;;0.10;0.10;;;;;;;12.39;76.35;98582.88;5129798;27;20031;-74
2023/10/04 07:48:00;;;;;;;0.10;0.10;;;;;;;12.42;76.83;98580.69;5134301;27;20050;-72
2023/10/04 07:50:28;;;;;;;0.20;0.20;;;;;;;12.44;76.53;98591.22;5135620;27;20035;-72
2023/10/04 07:52:59;;;;;;;0.10;0.10;;;;;;;12.50;76.37;98591.31;5135154;27;20040;-75
2023/10/04 07:55:27;;;;;;;0.13;0.13;;;;;;;12.53;76.21;98587.44;5128897;27;20046;-73
2023/10/04 07:57:58;;;;;;;0.13;0.13;;;;;;;12.57;76.29;98593.25;5135178;27;20063;-72
2023/10/04 08:00:29;;;;;;;0.20;0.20;;;;;;;12.52;76.25;98593.81;5135305;27;20039;-72
2023/10/04 08:02:57;;;;;;;0.10;0.10;;;;;;;12.57;75.86;98594.06;5136818;27;20081;-75
2023/10/04 08:05:26;;;;;;;0.20;0.20;;;;;;;12.57;75.48;98586.03;5138556;27;20035;-75
2023/10/04 08:07:55;;;;;;;0.17;0.17;;;;;;;12.55;75.27;98582.72;5135802;27;20417;-72
2023/10/04 08:10:25;;;;;;;0.10;0.10;;;;;;;12.56;75.37;98587.09;5135838;27;20409;-72
2023/10/04 08:12:54;;;;;;;0.10;0.10;;;;;;;12.55;75.16;98582.72;5133278;27;20118;-72
2023/10/04 08:15:25;;;;;;;0.28;0.28;;;;;;;12.56;75.17;98583.56;5134643;27;20088;-72
2023/10/04 08:17:55;;;;;;;0.10;0.10;;;;;;;12.58;74.96;98585.03;5134844;27;20047;-73
2023/10/04 08:20:26;;;;;;;0.10;0.10;;;;;;;12.64;75.38;98587.00;5133159;27;20517;-75
2023/10/04 08:22:54;;;;;;;0.10;0.10;;;;;;;12.61;75.14;98594.53;5132841;27;20047;-72
2023/10/04 08:25:23;;;;;;;0.20;0.20;;;;;;;12.71;75.22;98597.78;5134821;27;20383;-74
2023/10/04 08:27:51;;;;;;;0.20;0.20;;;;;;;12.74;74.98;98595.59;5134062;27;20054;-72
2023/10/04 08:30:20;;;;;;;0.20;0.20;;;;;;;12.83;74.75;98607.88;5131928;27;20402;-72
2023/10/04 08:32:49;;;;;;;0.20;0.20;;;;;;;12.95;74.07;98594.84;5133954;27;20459;-74
2023/10/04 08:35:28;;;;;;;0.20;0.20;;;;;;;13.06;74.14;98583.69;5133033;27;20046;-75
2023/10/04 08:37:58;;;;;;;0.10;0.10;;;;;;;13.12;72.89;98584.75;5125816;27;20157;-75
2023/10/04 08:40:27;;;;;;;0.15;0.15;;;;;;;13.16;73.32;98580.75;5133112;27;20084;-74
2023/10/04 08:42:56;;;;;;;0.22;0.22;;;;;;;13.26;73.17;98580.44;5125169;27;20449;-74
2023/10/04 08:45:24;;;;;;;0.20;0.20;;;;;;;13.34;72.12;98580.34;5133693;27;20074;-74
2023/10/04 08:47:55;;;;;;;0.20;0.20;;;;;;;13.38;71.95;98605.78;5128435;27;20478;-75
2023/10/04 08:50:31;;;;;;;0.30;0.30;;;;;;;13.41;71.85;98605.38;5135086;27;20126;-75
2023/10/04 08:53:04;;;;;;;0.20;0.20;;;;;;;13.45;71.33;98612.88;5128928;27;20118;-75
2023/10/04 08:55:39;;;;;;;0.03;0.03;;;;;;;13.47;71.07;98604.63;5133108;27;20054;-74
2023/10/04 08:58:08;;;;;;;0.30;0.30;;;;;;;13.53;70.45;98601.19;5133191;27;20384;-74
2023/10/04 09:00:38;;;;;;;0.20;0.20;;;;;;;13.60;70.82;98599.41;5132131;27;20102;-75
2023/10/04 09:03:06;;;;;;;0.13;0.13;;;;;;;13.57;70.59;98597.97;5133375;27;20054;-75
2023/10/04 09:05:37;;;;;;;0.20;0.20;;;;;;;13.65;70.44;98580.91;5133337;27;20510;-74
2023/10/04 09:08:06;;;;;;;0.20;0.20;;;;;;;13.75;69.55;98588.66;5134098;27;20508;-75
2023/10/04 09:10:34;;;;;;;0.20;0.20;;;;;;;13.76;69.10;98587.63;5133221;27;20034;-75
2023/10/04 09:13:03;;;;;;;0.15;0.15;;;;;;;13.77;69.55;98590.13;5117038;27;20039;-75
2023/10/04 09:15:32;;;;;;;0.20;0.20;;;;;;;13.87;68.85;98581.75;5124673;27;20039;-75
2023/10/04 09:18:02;;;;;;;0.20;0.20;;;;;;;13.88;67.88;98586.94;5129588;27;20044;-75
2023/10/04 09:20:32;;;;;;;0.20;0.20;;;;;;;13.79;67.82;98579.22;5130555;27;20051;-74
2023/10/04 09:23:03;;;;;;;0.10;0.10;;;;;;;13.82;68.38;98586.84;5127091;27;20032;-74
2023/10/04 09:25:36;;;;;;;0.10;0.10;;;;;;;13.77;67.90;98582.06;5132275;27;20122;-74
2023/10/04 09:28:05;;;;;;;0.30;0.30;;;;;;;13.74;67.10;98578.94;5132060;27;20035;-75
2023/10/04 09:30:36;;;;;;;0.20;0.20;;;;;;;13.68;66.47;98582.38;5131960;27;20122;-74
2023/10/04 09:33:05;;;;;;;0.15;0.15;;;;;;;13.80;67.28;98583.56;5132967;28;20043;-73
2023/10/04 09:35:43;;;;;;;0.00;0.00;;;;;;;13.91;66.62;98575.00;5132022;28;20043;-75
2023/10/04 09:38:16;;;;;;;0.20;0.20;;;;;;;13.87;66.19;98568.34;5132401;28;20071;-74
2023/10/04 09:40:52;;;;;;;0.25;0.25;;;;;;;13.96;65.82;98561.81;5130916;28;20554;-75
2023/10/04 09:43:32;;;;;;;0.10;0.10;;;;;;;14.08;65.52;98576.41;5132230;28;20130;-75
2023/10/04 09:46:00;;;;;;;0.20;0.20;;;;;;;14.13;65.01;98582.00;5124392;28;20119;-74
2023/10/04 09:48:31;;;;;;;0.20;0.20;;;;;;;14.11;65.67;98576.03;5132257;28;20043;-74
2023/10/04 09:50:59;;;;;;;0.30;0.30;;;;;;;14.20;65.67;98585.59;5124745;28;20425;-73
2023/10/04 09:53:46;;;;;;;0.10;0.10;;;;;;;14.20;65.65;98590.97;5131944;28;20039;-74
2023/10/04 09:56:16;;;;;;;0.10;0.10;;;;;;;14.13;64.62;98590.06;5132203;28;20134;-74
2023/10/04 09:58:48;;;;;;;0.10;0.10;;;;;;;14.13;65.30;98590.06;5132164;28;20056;-75
2023/10/04 10:01:19;;;;;;;0.10;0.10;;;;;;;14.20;64.64;98593.66;5132341;28;20046;-75
2023/10/04 10:03:52;;;;;;;0.20;0.20;;;;;;;14.22;65.10;98594.25;5132059;28;20043;-73
2023/10/04 10:06:23;;;;;;;0.20;0.20;;;;;;;14.20;64.23;98600.88;5131686;28;20044;-74
2023/10/04 10:08:57;;;;;;;0.13;0.13;;;;;;;14.21;64.39;98598.00;5131645;28;20039;-74
2023/10/04 10:11:26;;;;;;;0.20;0.20;;;;;;;14.29;64.18;98605.09;5130205;27;20126;-75
2023/10/04 10:13:54;;;;;;;0.20;0.20;;;;;;;14.29;64.06;98600.53;5129232;27;20466;-73
2023/10/04 10:16:23;;;;;;;0.10;0.10;;;;;;;14.15;65.09;98605.97;5135893;27;20047;-73
2023/10/04 10:18:52;;;;;;;0.20;0.20;;;;;;;14.26;65.50;98598.25;5136110;27;20069;-75
2023/10/04 10:21:20;;;;;;;0.20;0.20;;;;;;;14.45;65.22;98607.50;5135774;27;20467;-74
2023/10/04 10:24:03;;;;;;;0.10;0.10;;;;;;;14.49;64.38;98600.75;5135419;27;20063;-74
2023/10/04 10:26:33;;;;;;;0.17;0.17;;;;;;;14.22;63.85;98605.00;5135705;27;20057;-75
2023/10/04 10:29:03;;;;;;;0.10;0.10;;;;;;;14.14;64.11;98607.84;5123621;27;20046;-74
2023/10/04 10:31:31;;;;;;;0.20;0.20;;;;;;;14.29;64.24;98603.22;5132591;27;20452;-75
2023/10/04 10:34:03;;;;;;;0.10;0.10;;;;;;;14.45;64.62;98599.47;5139749;27;20177;-74
2023/10/04 10:36:32;;;;;;;0.20;0.20;;;;;;;14.60;64.12;98608.28;5139993;27;20491;-74
2023/10/04 10:39:19;;;;;;;0.13;0.13;;;;;;;14.72;62.92;98603.19;5138862;27;20039;-74
2023/10/04 10:41:57;;;;;;;0.10;0.10;;;;;;;14.75;62.80;98586.66;5135421;27;20039;-74
2023/10/04 10:44:30;;;;;;;0.20;0.20;;;;;;;14.97;62.04;98590.94;5135386;27;20043;-73
2023/10/04 10:47:04;;;;;;;0.13;0.13;;;;;;;14.81;61.52;98583.19;5130284;27;20414;-74
2023/10/04 10:49:40;;;;;;;0.25;0.25;;;;;;;14.90;61.62;98586.56;5135630;27;20193;-75
2023/10/04 10:52:10;;;;;;;0.35;0.35;;;;;;;14.99;61.60;98593.44;5135203;27;20038;-74
2023/10/04 10:54:39;;;;;;;0.10;0.10;;;;;;;15.01;61.17;98592.22;5135005;27;20104;-75
2023/10/04 10:57:07;;;;;;;0.20;0.20;;;;;;;14.96;61.13;98597.34;5135217;27;20091;-74
2023/10/04 10:59:35;;;;;;;0.10;0.10;;;;;;;14.85;61.62;98594.38;5135193;27;20052;-73
2023/10/04 11:02:05;;;;;;;0.20;0.20;;;;;;;14.99;61.64;98588.06;5135295;27;20040;-75
2023/10/04 11:04:34;;;;;;;0.10;0.10;;;;;;;15.17;61.17;98593.72;5131900;27;20082;-73
2023/10/04 11:07:01;;;;;;;0.20;0.20;;;;;;;15.17;60.99;98587.53;5134961;27;20043;-75
2023/10/04 11:09:37;;;;;;;0.13;0.13;;;;;;;14.95;61.36;98584.91;5134852;27;20074;-74
2023/10/04 11:12:18;;;;;;;0.20;0.20;;;;;;;14.87;61.17;98577.03;5135056;27;20115;-75
2023/10/04 11:14:45;;;;;;;0.10;0.10;;;;;;;15.07;60.19;98580.66;5133011;27;20051;-74
2023/10/04 11:17:14;;;;;;;0.10;0.10;;;;;;;15.16;59.88;98573.25;5134021;27;20043;-74
2023/10/04 11:19:42;;;;;;;0.10;0.10;;;;;;;15.01;60.53;98570.69;5134177;27;20070;-73
2023/10/04 11:22:12;;;;;;;0.20;0.20;;;;;;;15.12;61.01;98573.84;5133749;27;20402;-74
2023/10/04 11:24:40;;;;;;;0.10;0.10;;;;;;;15.23;60.43;98555.28;5134421;27;20049;-74
2023/10/04 11:27:08;;;;;;;0.10;0.10;;;;;;;15.38;59.96;98558.66;5134409;27;20035;-74
2023/10/04 11:29:38;;;;;;;0.32;0.32;;;;;;;15.42;60.31;98549.16;5130739;27;20047;-74
2023/10/04 11:32:06;;;;;;;0.20;0.20;;;;;;;15.36;59.27;98560.75;5134630;27;20043;-74
2023/10/04 11:34:39;;;;;;;0.17;0.17;;;;;;;15.23;60.46;98559.84;5134930;27;20043;-74
2023/10/04 11:37:08;;;;;;;0.15;0.15;;;;;;;15.35;60.30;98560.94;5134394;27;20058;-74
2023/10/04 11:39:35;;;;;;;0.20;0.20;;;;;;;15.53;60.08;98558.50;5134139;27;20043;-74
2023/10/04 11:42:05;;;;;;;0.20;0.15;;;;;;;15.69;59.62;98560.84;5123909;27;20035;-73
2023/10/04 11:44:35;;;;;;;0.20;0.20;;;;;;;16.19;58.51;98566.75;5127757;27;20047;-74
2023/10/04 11:47:08;;;;;;;0.20;0.20;;;;;;;16.47;56.11;98563.84;5133938;27;20394;-75